Time;durP1;ratioP1;P1;durP2;ratioP2;P2;SDS_P1;SDS_P2;PMS_P1;PMS_P2;Temp;Humidity;BMP_temperature;BMP_pressure;BME280_temperature;BME280_humidity;BME280_pressure;Samples;Min_cycle;Max_cycle;Signal;HPM_P1;HPM_P2
2021/07/10 00:00:03;;;;;;;;;;;;;;;21.36;56.67;100944.03;5059447;28;787;-40
2021/07/10 00:02:29;;;;;;;;;;;;;;;21.22;56.88;100938.44;5058691;28;716;-43
2021/07/10 00:04:55;;;;;;;;;;;;;;;21.39;56.72;100945.38;5054773;28;888;-40
2021/07/10 00:07:20;;;;;;;;;;;;;;;21.24;56.98;100932.63;5059189;28;1976;-41
2021/07/10 00:09:46;;;;;;;;;;;;;;;21.64;56.11;100933.06;5058891;28;732;-39
2021/07/10 00:12:11;;;;;;;;;;;;;;;21.58;56.19;100929.59;5058491;28;749;-39
2021/07/10 00:14:36;;;;;;;;;;;;;;;21.47;56.48;100920.59;5058797;28;776;-39
2021/07/10 00:17:02;;;;;;;;;;;;;;;21.33;56.93;100920.56;5058748;28;728;-39
2021/07/10 00:19:27;;;;;;;;;;;;;;;21.51;56.17;100924.41;5058245;28;1018;-40
2021/07/10 00:21:53;;;;;;;;;;;;;;;21.44;56.29;100921.22;5058952;28;808;-39
2021/07/10 00:24:18;;;;;;;;;;;;;;;21.45;56.44;100936.69;5058316;28;752;-40
2021/07/10 00:26:44;;;;;;;;;;;;;;;20.98;57.87;100924.75;5058697;28;1977;-40
2021/07/10 00:29:09;;;;;;;;;;;;;;;20.74;58.53;100931.16;5040766;28;1226;-39
2021/07/10 00:31:35;;;;;;;;;;;;;;;20.32;58.46;100928.09;5058368;28;788;-39
2021/07/10 00:34:00;;;;;;;;;;;;;;;20.74;58.73;100931.16;5057722;28;955;-39
2021/07/10 00:36:26;;;;;;;;;;;;;;;21.27;57.83;100934.81;5058478;28;864;-41
2021/07/10 00:38:53;;;;;;;;;;;;;;;21.46;57.72;100940.28;5058558;28;748;-40
2021/07/10 00:41:18;;;;;;;;;;;;;;;21.49;58.30;100934.97;5058107;28;855;-39
2021/07/10 00:43:47;;;;;;;;;;;;;;;21.57;58.48;100938.19;5058208;28;804;-40
2021/07/10 00:46:15;;;;;;;;;;;;;;;21.42;58.94;100929.00;5058072;28;1973;-42
2021/07/10 00:48:41;;;;;;;;;;;;;;;21.03;60.62;100921.91;5057783;28;1018;-40
2021/07/10 00:51:06;;;;;;;;;;;;;;;21.00;60.50;100923.31;5058180;28;768;-40
2021/07/10 00:53:32;;;;;;;;;;;;;;;20.78;59.15;100926.69;5057765;28;1167;-40
2021/07/10 00:55:58;;;;;;;;;;;;;;;20.95;62.03;100922.56;5057384;28;807;-42
2021/07/10 00:58:23;;;;;;;;;;;;;;;21.48;60.40;100913.94;5039938;28;844;-40
2021/07/10 01:00:49;;;;;;;;;;;;;;;21.67;59.64;100913.09;5057891;28;816;-40
2021/07/10 01:03:14;;;;;;;;;;;;;;;21.91;59.02;100906.56;5039808;28;795;-40
2021/07/10 01:05:40;;;;;;;;;;;;;;;21.79;59.32;100899.59;5040373;28;971;-40
2021/07/10 01:08:05;;;;;;;;;;;;;;;21.20;61.25;100894.50;5038010;28;2004;-40
2021/07/10 01:10:31;;;;;;;;;;;;;;;21.15;60.77;100891.00;5037930;28;812;-40
2021/07/10 01:12:56;;;;;;;;;;;;;;;20.39;58.66;100886.31;5020280;28;852;-40
2021/07/10 01:15:23;;;;;;;;;;;;;;;20.39;60.71;100885.50;5037702;28;860;-40
2021/07/10 01:17:48;;;;;;;;;;;;;;;20.79;58.04;100883.28;5037498;28;788;-40
2021/07/10 01:20:15;;;;;;;;;;;;;;;20.94;57.42;100868.41;5053126;28;979;-40
2021/07/10 01:22:40;;;;;;;;;;;;;;;21.15;57.09;100868.88;5057405;28;867;-40
2021/07/10 01:25:07;;;;;;;;;;;;;;;21.03;57.46;100866.59;5057460;28;804;-40
2021/07/10 01:27:32;;;;;;;;;;;;;;;21.17;57.14;100859.16;5057217;28;1980;-40
2021/07/10 01:29:57;;;;;;;;;;;;;;;21.14;57.29;100857.03;5057570;28;736;-40
2021/07/10 01:32:23;;;;;;;;;;;;;;;21.26;56.82;100850.19;5039399;28;772;-40
2021/07/10 01:34:48;;;;;;;;;;;;;;;21.28;57.01;100857.06;5056331;28;943;-40
2021/07/10 01:37:14;;;;;;;;;;;;;;;21.25;57.08;100859.59;5057331;28;847;-40
2021/07/10 01:39:40;;;;;;;;;;;;;;;21.30;57.06;100856.75;5057504;28;731;-40
2021/07/10 01:42:06;;;;;;;;;;;;;;;21.33;57.05;100858.91;5057026;28;740;-39
2021/07/10 01:44:31;;;;;;;;;;;;;;;21.27;57.17;100857.38;5056933;28;752;-40
2021/07/10 01:46:56;;;;;;;;;;;;;;;21.17;57.43;100847.31;5056566;28;1910;-39
2021/07/10 01:49:22;;;;;;;;;;;;;;;21.29;57.33;100846.81;5056493;28;1018;-39
2021/07/10 01:51:47;;;;;;;;;;;;;;;21.59;56.39;100845.47;5057023;28;855;-39
2021/07/10 01:54:14;;;;;;;;;;;;;;;21.73;55.99;100850.16;5056808;28;1226;-40
2021/07/10 01:56:40;;;;;;;;;;;;;;;21.10;57.66;100858.75;5056888;28;740;-40
2021/07/10 01:59:05;;;;;;;;;;;;;;;20.76;59.08;100856.25;5056712;28;760;-39
2021/07/10 02:01:32;;;;;;;;;;;;;;;20.57;57.38;100851.53;5056485;28;796;-39
2021/07/10 02:03:58;;;;;;;;;;;;;;;20.72;59.52;100850.50;5054174;28;1022;-39
2021/07/10 02:06:23;;;;;;;;;;;;;;;21.10;58.74;100855.97;5036835;28;1906;-39
2021/07/10 02:08:49;;;;;;;;;;;;;;;21.11;57.79;100851.25;5036413;28;505;-39
2021/07/10 02:11:14;;;;;;;;;;;;;;;21.03;56.74;100850.84;5036693;28;831;-40
2021/07/10 02:13:40;;;;;;;;;;;;;;;20.77;55.46;100842.13;5036331;28;843;-40
2021/07/10 02:16:05;;;;;;;;;;;;;;;20.75;53.88;100847.16;5036167;28;781;-39
2021/07/10 02:18:31;;;;;;;;;;;;;;;20.70;52.88;100852.75;5037228;28;967;-40
2021/07/10 02:20:56;;;;;;;;;;;;;;;20.76;54.08;100853.47;5056542;28;776;-39
2021/07/10 02:23:21;;;;;;;;;;;;;;;21.00;55.44;100850.63;5055966;28;851;-39
2021/07/10 02:25:47;;;;;;;;;;;;;;;21.03;56.89;100848.06;5055964;28;776;-40
2021/07/10 02:28:12;;;;;;;;;;;;;;;21.08;57.85;100852.69;5056503;28;1980;-40
2021/07/10 02:30:38;;;;;;;;;;;;;;;21.49;57.42;100843.66;5055797;28;808;-41
2021/07/10 02:33:04;;;;;;;;;;;;;;;21.38;58.35;100853.28;5056421;28;823;-40
2021/07/10 02:35:29;;;;;;;;;;;;;;;21.07;59.79;100850.22;5055857;28;955;-39
2021/07/10 02:37:54;;;;;;;;;;;;;;;20.84;60.78;100845.31;5055586;28;759;-39
2021/07/10 02:40:20;;;;;;;;;;;;;;;20.69;59.21;100848.34;5056316;28;799;-40
2021/07/10 02:42:46;;;;;;;;;;;;;;;21.07;60.96;100840.00;5056327;28;815;-41
2021/07/10 02:45:12;;;;;;;;;;;;;;;21.37;59.96;100838.63;5055461;28;831;-39
2021/07/10 02:47:37;;;;;;;;;;;;;;;21.48;59.73;100836.50;5056192;28;1906;-39
2021/07/10 02:50:04;;;;;;;;;;;;;;;21.61;59.38;100836.84;5055774;28;951;-39
2021/07/10 02:52:30;;;;;;;;;;;;;;;21.92;58.79;100822.38;5055863;28;1093;-40
2021/07/10 02:54:55;;;;;;;;;;;;;;;21.43;60.28;100833.00;5056064;28;780;-39
2021/07/10 02:57:22;;;;;;;;;;;;;;;21.19;61.15;100831.22;5056062;28;1160;-39
2021/07/10 02:59:47;;;;;;;;;;;;;;;21.04;60.01;100835.06;5055704;28;823;-39
2021/07/10 03:02:13;;;;;;;;;;;;;;;21.13;60.56;100829.69;5056345;28;875;-39
2021/07/10 03:04:38;;;;;;;;;;;;;;;21.53;60.91;100819.00;5047509;28;923;-43
2021/07/10 03:07:04;;;;;;;;;;;;;;;21.77;59.80;100829.88;5035808;28;1921;-39
2021/07/10 03:09:29;;;;;;;;;;;;;;;21.90;59.35;100827.44;5035939;28;807;-39
2021/07/10 03:11:55;;;;;;;;;;;;;;;21.81;59.34;100835.63;5036050;28;795;-42
2021/07/10 03:14:20;;;;;;;;;;;;;;;21.22;61.75;100841.66;5035843;28;728;-42
2021/07/10 03:16:46;;;;;;;;;;;;;;;21.06;61.38;100838.34;5035485;28;858;-43
2021/07/10 03:19:11;;;;;;;;;;;;;;;21.00;58.96;100832.09;5042035;28;1113;-46
2021/07/10 03:21:36;;;;;;;;;;;;;;;21.28;61.65;100839.63;5056090;28;748;-43
2021/07/10 03:24:02;;;;;;;;;;;;;;;21.50;60.27;100825.97;5055655;28;748;-44
2021/07/10 03:26:27;;;;;;;;;;;;;;;21.77;59.96;100829.88;5055339;28;1989;-42
2021/07/10 03:28:53;;;;;;;;;;;;;;;21.84;60.14;100833.06;5038870;28;1103;-43
2021/07/10 03:31:18;;;;;;;;;;;;;;;21.20;62.54;100833.66;5059648;28;760;-43
2021/07/10 03:33:47;;;;;;;;;;;;;;;21.42;62.04;100834.97;5058887;28;1006;-43
2021/07/10 03:36:12;;;;;;;;;;;;;;;21.05;59.82;100835.91;5059550;28;779;-43
2021/07/10 03:38:39;;;;;;;;;;;;;;;;;;5059231;28;883;-42
2021/07/10 03:41:05;;;;;;;;;;;;;;;21.59;62.23;100828.00;5059451;28;831;-43
2021/07/10 03:43:30;;;;;;;;;;;;;;;22.04;60.31;100836.53;5059454;28;858;-43
2021/07/10 03:45:56;;;;;;;;;;;;;;;22.16;59.95;100836.84;5058854;28;756;-43
2021/07/10 03:48:22;;;;;;;;;;;;;;;22.21;59.76;100830.34;5059008;28;1902;-43
2021/07/10 03:50:47;;;;;;;;;;;;;;;21.79;60.88;100826.81;5039358;28;784;-43
2021/07/10 03:53:13;;;;;;;;;;;;;;;21.59;61.80;100825.25;5055989;28;1489;-41
2021/07/10 03:55:39;;;;;;;;;;;;;;;21.37;60.50;100826.75;5058664;28;760;-41
2021/07/10 03:58:04;;;;;;;;;;;;;;;21.14;58.46;100826.59;5059460;28;748;-41
2021/07/10 04:00:29;;;;;;;;;;;;;;;21.50;61.53;100820.41;5058752;28;803;-42
2021/07/10 04:02:55;;;;;;;;;;;;;;;21.69;62.57;100822.31;5059038;28;843;-41
2021/07/10 04:05:20;;;;;;;;;;;;;;;21.99;61.28;100820.84;5057915;28;1079;-41
2021/07/10 04:07:46;;;;;;;;;;;;;;;21.94;61.34;100829.25;5058155;28;1971;-44
2021/07/10 04:10:12;;;;;;;;;;;;;;;21.68;62.60;100821.47;5041470;28;2036;-43
2021/07/10 04:12:37;;;;;;;;;;;;;;;21.61;61.80;100820.25;5058990;28;756;-42
2021/07/10 04:15:03;;;;;;;;;;;;;;;21.35;59.30;100829.81;5058652;28;760;-43
2021/07/10 04:17:29;;;;;;;;;;;;;;;21.49;58.30;100829.84;5058958;28;756;-42
2021/07/10 04:19:54;;;;;;;;;;;;;;;21.27;59.67;100832.47;5057599;28;1018;-44
2021/07/10 04:22:20;;;;;;;;;;;;;;;21.11;58.40;100835.50;5058161;28;828;-44
2021/07/10 04:24:45;;;;;;;;;;;;;;;21.34;60.80;100833.69;5058742;28;760;-43
2021/07/10 04:27:11;;;;;;;;;;;;;;;21.67;63.26;100830.06;5058472;28;1906;-42
2021/07/10 04:29:36;;;;;;;;;;;;;;;21.91;64.17;100831.81;5058099;28;838;-42
2021/07/10 04:32:02;;;;;;;;;;;;;;;22.14;64.49;100832.72;5058585;28;804;-41
2021/07/10 04:34:27;;;;;;;;;;;;;;;22.17;64.03;100832.09;5058103;28;966;-42
2021/07/10 04:36:53;;;;;;;;;;;;;;;22.10;64.18;100838.06;5057809;28;740;-43
2021/07/10 04:39:18;;;;;;;;;;;;;;;21.98;63.98;100832.22;5058359;28;827;-41
2021/07/10 04:41:43;;;;;;;;;;;;;;;21.51;59.00;100838.63;5058712;28;808;-41
2021/07/10 04:44:09;;;;;;;;;;;;;;;21.14;59.47;100840.44;5057737;28;784;-41
2021/07/10 04:46:34;;;;;;;;;;;;;;;21.41;59.53;100838.84;5058128;28;1967;-43
2021/07/10 04:49:00;;;;;;;;;;;;;;;21.23;59.34;100839.75;5057905;28;975;-41
2021/07/10 04:51:25;;;;;;;;;;;;;;;21.29;57.33;100836.56;5057770;28;803;-41
2021/07/10 04:53:51;;;;;;;;;;;;;;;21.25;56.48;100831.94;5058010;28;1333;-41
2021/07/10 04:56:16;;;;;;;;;;;;;;;21.26;55.78;100836.34;5058690;28;768;-42
2021/07/10 04:58:43;;;;;;;;;;;;;;;21.11;55.86;100834.66;5057334;28;811;-42
2021/07/10 05:01:09;;;;;;;;;;;;;;;21.13;55.51;100838.78;5058318;28;768;-41
2021/07/10 05:03:35;;;;;;;;;;;;;;;21.14;55.00;100829.38;5057501;28;1033;-41
2021/07/10 05:06:00;;;;;;;;;;;;;;;21.14;55.20;100834.06;5038863;28;1168;-40
2021/07/10 05:08:26;;;;;;;;;;;;;;;21.40;54.45;100833.63;5037837;28;1980;-41
2021/07/10 05:10:51;;;;;;;;;;;;;;;21.25;55.09;100835.53;5037899;28;909;-41
2021/07/10 05:13:17;;;;;;;;;;;;;;;21.23;55.10;100842.50;5037220;28;884;-40
2021/07/10 05:15:42;;;;;;;;;;;;;;;21.31;54.97;100847.34;5037799;28;791;-40
2021/07/10 05:18:08;;;;;;;;;;;;;;;21.29;55.00;100847.63;5036103;28;875;-40
2021/07/10 05:20:34;;;;;;;;;;;;;;;21.09;55.50;100837.75;5055320;28;1031;-41
2021/07/10 05:22:59;;;;;;;;;;;;;;;21.32;54.70;100841.50;5058016;28;823;-41
2021/07/10 05:25:25;;;;;;;;;;;;;;;21.23;54.93;100843.31;5057151;28;795;-40
2021/07/10 05:27:50;;;;;;;;;;;;;;;21.31;54.90;100839.03;5057350;28;1909;-40
2021/07/10 05:30:16;;;;;;;;;;;;;;;21.22;54.98;100847.19;5057515;28;783;-41
2021/07/10 05:32:42;;;;;;;;;;;;;;;21.17;55.18;100837.06;5057446;28;775;-40
2021/07/10 05:35:08;;;;;;;;;;;;;;;21.24;54.79;100838.59;5056734;28;1006;-41
2021/07/10 05:37:33;;;;;;;;;;;;;;;21.38;54.54;100842.22;5056820;28;756;-40
2021/07/10 05:39:59;;;;;;;;;;;;;;;21.51;54.34;100837.81;5057483;28;772;-41
2021/07/10 05:42:24;;;;;;;;;;;;;;;21.50;54.37;100842.56;5057643;28;803;-40
2021/07/10 05:44:50;;;;;;;;;;;;;;;21.43;54.63;100841.31;5056621;28;824;-41
2021/07/10 05:47:15;;;;;;;;;;;;;;;21.47;54.38;100831.25;5056851;28;1910;-41
2021/07/10 05:49:40;;;;;;;;;;;;;;;21.26;55.25;100841.88;5056890;28;1011;-41
2021/07/10 05:52:06;;;;;;;;;;;;;;;21.52;54.46;100845.84;5056145;28;783;-41
2021/07/10 05:54:32;;;;;;;;;;;;;;;21.49;54.61;100857.50;5056716;28;1166;-56
2021/07/10 05:56:57;;;;;;;;;;;;;;;21.28;55.12;100853.44;5057011;28;807;-40
2021/07/10 05:59:23;;;;;;;;;;;;;;;21.31;55.17;100850.09;5056249;28;816;-45
2021/07/10 06:01:48;;;;;;;;;;;;;;;21.30;55.23;100852.03;5056950;28;828;-42
2021/07/10 06:04:13;;;;;;;;;;;;;;;21.42;55.13;100839.66;5052050;28;943;-41
2021/07/10 06:06:39;;;;;;;;;;;;;;;21.44;54.95;100838.22;5036368;28;1973;-41
2021/07/10 06:09:04;;;;;;;;;;;;;;;21.40;55.07;100845.50;5036677;28;812;-41
2021/07/10 06:11:30;;;;;;;;;;;;;;;21.44;54.86;100846.53;5037086;28;761;-49
2021/07/10 06:13:55;;;;;;;;;;;;;;;21.42;55.14;100851.56;5036032;28;832;-44
2021/07/10 06:16:20;;;;;;;;;;;;;;;21.46;54.96;100846.22;5036511;28;804;-43
2021/07/10 06:18:46;;;;;;;;;;;;;;;21.41;55.14;100838.84;5040002;28;972;-50
2021/07/10 06:21:11;;;;;;;;;;;;;;;21.48;54.97;100839.25;5055610;28;1540;-51
2021/07/10 06:23:39;;;;;;;;;;;;;;;21.41;55.01;100849.09;5056493;28;814;-42
2021/07/10 06:26:04;;;;;;;;;;;;;;;21.12;55.94;100848.19;5056471;28;748;-47
2021/07/10 06:28:30;;;;;;;;;;;;;;;20.98;56.72;100856.44;5055598;28;787;-42
2021/07/10 06:30:56;;;;;;;;;;;;;;;20.51;55.67;100850.78;5056467;28;808;-47
2021/07/10 06:33:22;;;;;;;;;;;;;;;20.81;57.22;100848.69;5055738;28;972;-41
2021/07/10 06:35:47;;;;;;;;;;;;;;;21.47;56.93;100845.91;5055921;28;991;-42
2021/07/10 06:38:13;;;;;;;;;;;;;;;21.90;57.71;100847.63;5038039;28;776;-42
2021/07/10 06:40:38;;;;;;;;;;;;;;;21.65;60.29;100854.47;5056549;28;809;-48
2021/07/10 06:43:03;;;;;;;;;;;;;;;21.76;61.15;100847.63;5055758;28;779;-53
2021/07/10 06:45:29;;;;;;;;;;;;;;;21.73;59.66;100845.47;5056504;28;804;-54
2021/07/10 06:47:55;;;;;;;;;;;;;;;21.55;57.35;100851.91;5055968;28;1906;-47
2021/07/10 06:50:20;;;;;;;;;;;;;;;21.53;58.62;100841.97;5055636;28;966;-41
2021/07/10 06:52:46;;;;;;;;;;;;;;;21.93;61.42;100843.41;5056464;28;1092;-50
2021/07/10 06:55:12;;;;;;;;;;;;;;;22.02;62.87;100847.09;5055587;28;764;-48
2021/07/10 06:57:37;;;;;;;;;;;;;;;22.31;62.81;100851.47;5055804;28;848;-42
2021/07/10 07:00:05;;;;;;;;;;;;;;;22.44;62.05;100847.88;5038047;28;1115;-43
2021/07/10 07:02:30;;;;;;;;;;;;;;;21.97;62.71;100850.78;5055934;28;783;-43
2021/07/10 07:04:55;;;;;;;;;;;;;;;21.80;62.25;100847.84;5048276;28;1022;-44
2021/07/10 07:07:21;;;;;;;;;;;;;;;21.29;59.25;100846.81;5039934;28;1906;-41
2021/07/10 07:09:46;;;;;;;;;;;;;;;20.76;57.82;100847.97;5040394;28;731;-43
2021/07/10 07:12:12;;;;;;;;;;;;;;;20.79;58.59;100842.66;5039881;28;819;-42
2021/07/10 07:14:37;;;;;;;;;;;;;;;21.07;56.06;100845.53;5040243;28;786;-44
2021/07/10 07:17:03;;;;;;;;;;;;;;;20.97;53.66;100842.91;5040446;28;759;-44
2021/07/10 07:19:32;;;;;;;;;;;;;;;20.64;53.08;100843.69;5048635;28;1026;-45
2021/07/10 07:21:57;;;;;;;;;;;;;;;20.44;52.90;100855.88;5059587;28;824;-44
2021/07/10 07:24:23;;;;;;;;;;;;;;;20.50;51.53;100857.41;5059671;28;819;-42
2021/07/10 07:26:48;;;;;;;;;;;;;;;20.61;51.96;100860.06;5059406;28;1975;-41
2021/07/10 07:29:14;;;;;;;;;;;;;;;20.58;53.75;100850.41;5060106;28;744;-41
2021/07/10 07:31:39;;;;;;;;;;;;;;;21.00;55.49;100851.44;5059651;28;772;-40
2021/07/10 07:34:05;;;;;;;;;;;;;;;21.39;57.10;100854.91;5058797;28;935;-41
2021/07/10 07:36:30;;;;;;;;;;;;;;;21.70;57.99;100849.66;5059598;28;744;-43
2021/07/10 07:38:56;;;;;;;;;;;;;;;21.97;58.67;100861.06;5059316;28;824;-42
2021/07/10 07:41:21;;;;;;;;;;;;;;;21.49;61.04;100851.97;5059533;28;783;-41
2021/07/10 07:43:47;;;;;;;;;;;;;;;21.41;62.25;100849.09;5059348;28;816;-43
2021/07/10 07:46:13;;;;;;;;;;;;;;;21.30;60.05;100853.97;5059125;28;1909;-45
2021/07/10 07:48:40;;;;;;;;;;;;;;;21.13;58.60;100855.38;5058706;28;1034;-43
2021/07/10 07:51:05;;;;;;;;;;;;;;;21.73;61.82;100856.53;5059294;28;788;-41
2021/07/10 07:53:30;;;;;;;;;;;;;;;21.86;63.20;100855.69;5059203;28;1256;-43
2021/07/10 07:55:56;;;;;;;;;;;;;;;22.16;62.63;100850.69;5059255;28;822;-42
2021/07/10 07:58:21;;;;;;;;;;;;;;;22.06;63.12;100853.63;5059037;28;772;-43
2021/07/10 08:00:47;;;;;;;;;;;;;;;21.87;63.85;100857.34;5040960;28;1361;-42
2021/07/10 08:03:12;;;;;;;;;;;;;;;21.75;61.71;100859.81;5058723;28;808;-42
2021/07/10 08:05:37;;;;;;;;;;;;;;;21.02;57.99;100859.44;5058515;28;1010;-44
2021/07/10 08:08:03;;;;;;;;;;;;;;;21.14;59.20;100853.41;5059028;28;1913;-41
2021/07/10 08:10:28;;;;;;;;;;;;;;;21.07;59.36;100859.34;5058760;28;776;-45
2021/07/10 08:12:54;;;;;;;;;;;;;;;21.12;58.17;100858.44;5058655;28;834;-43
2021/07/10 08:15:20;;;;;;;;;;;;;;;21.19;55.99;100853.34;5058983;28;782;-42
2021/07/10 08:17:46;;;;;;;;;;;;;;;21.15;54.91;100855.91;5059069;28;830;-47
2021/07/10 08:20:12;;;;;;;;;;;;;;;21.02;54.49;100849.19;5057407;28;947;-42
2021/07/10 08:22:37;;;;;;;;;;;;;;;20.87;54.91;100851.38;5058752;28;810;-41
2021/07/10 08:25:03;;;;;;;;;;;;;;;20.90;55.17;100850.78;5058426;28;778;-43
2021/07/10 08:27:29;;;;;;;;;;;;;;;21.01;55.25;100846.72;5058749;28;1972;-47
2021/07/10 08:29:54;;;;;;;;;;;;;;;21.10;54.99;100855.16;5058573;28;804;-42
2021/07/10 08:32:20;;;;;;;;;;;;;;;21.14;54.95;100845.13;5058610;28;812;-41
2021/07/10 08:34:45;;;;;;;;;;;;;;;21.02;55.43;100848.38;5057977;28;967;-41
2021/07/10 08:37:10;;;;;;;;;;;;;;;21.12;55.25;100839.91;5058527;28;803;-42
2021/07/10 08:39:36;;;;;;;;;;;;;;;21.11;55.37;100838.28;5058413;28;736;-45
2021/07/10 08:42:02;;;;;;;;;;;;;;;21.34;54.45;100830.94;5057850;28;752;-42
2021/07/10 08:44:27;;;;;;;;;;;;;;;21.35;54.57;100829.00;5058346;28;811;-42
2021/07/10 08:46:52;;;;;;;;;;;;;;;21.20;55.17;100836.44;5058497;28;1973;-41
2021/07/10 08:49:18;;;;;;;;;;;;;;;21.20;55.38;100836.44;5057701;28;955;-41
2021/07/10 08:51:47;;;;;;;;;;;;;;;21.36;54.59;100823.16;5057904;28;791;-41
2021/07/10 08:54:12;;;;;;;;;;;;;;;21.35;54.66;100840.88;5057958;28;1040;-41
2021/07/10 08:56:38;;;;;;;;;;;;;;;21.38;54.46;100828.41;5057793;28;760;-44
2021/07/10 08:59:03;;;;;;;;;;;;;;;21.17;55.14;100828.75;5058538;28;807;-41
2021/07/10 09:01:29;;;;;;;;;;;;;;;21.36;54.61;100834.22;5057750;28;816;-42
2021/07/10 09:03:54;;;;;;;;;;;;;;;21.42;54.57;100834.97;5055532;28;970;-41
2021/07/10 09:06:20;;;;;;;;;;;;;;;21.36;54.59;100838.94;5038387;28;1969;-41
2021/07/10 09:08:57;;;;;;;;;;;;;;;21.29;55.08;100836.56;5038070;28;851;-43
2021/07/10 09:11:22;;;;;;;;;;;;;;;21.34;54.72;100833.69;5037460;28;792;-41
2021/07/10 09:13:50;;;;;;;;;;;;;;;21.45;54.41;100833.53;5037878;28;847;-41
2021/07/10 09:16:16;;;;;;;;;;;;;;;21.52;54.23;100829.25;5037437;28;824;-41
2021/07/10 09:18:48;;;;;;;;;;;;;;;21.15;55.40;100831.00;5040389;28;1030;-42
2021/07/10 09:21:52;;;;;;;;;;;;;;;21.34;54.97;100824.59;5057861;28;828;-45
2021/07/10 09:24:18;;;;;;;;;;;;;;;21.39;54.78;100813.41;4957345;29;1191;-42
2021/07/10 09:26:44;;;;;;;;;;;;;;;21.14;55.54;100832.13;4940235;29;1914;-41
2021/07/10 09:29:17;;;;;;;;;;;;;;;21.35;54.87;100817.94;5004531;28;936;-42
2021/07/10 09:31:43;;;;;;;;;;;;;;;21.57;54.27;100824.75;5057333;28;804;-44
2021/07/10 09:34:10;;;;;;;;;;;;;;;21.44;54.89;100824.41;5056607;28;967;-42
2021/07/10 09:36:35;;;;;;;;;;;;;;;21.48;54.48;100822.66;5057386;28;788;-41
2021/07/10 09:39:01;;;;;;;;;;;;;;;21.06;56.09;100832.00;5057523;28;808;-41
2021/07/10 09:41:27;;;;;;;;;;;;;;;20.98;56.47;100833.50;5056626;28;815;-41
2021/07/10 09:43:56;;;;;;;;;;;;;;;20.60;54.98;100830.78;5056995;28;808;-43
2021/07/10 09:46:27;;;;;;;;;;;;;;;20.96;56.69;100821.94;5039786;28;1980;-42
2021/07/10 09:48:52;;;;;;;;;;;;;;;21.33;56.10;100820.19;5056477;28;1208;-41
2021/07/10 09:51:21;;;;;;;;;;;;;;;21.56;57.37;100826.72;5056862;28;783;-42
2021/07/10 09:54:06;;;;;;;;;;;;;;;21.72;58.72;100816.16;5056729;28;1028;-42
2021/07/10 09:56:33;;;;;;;;;;;;;;;21.60;60.58;100824.97;5056906;28;803;-40
2021/07/10 09:58:58;;;;;;;;;;;;;;;21.61;60.10;100823.00;5057132;28;795;-41
2021/07/10 10:01:27;;;;;;;;;;;;;;;21.20;57.98;100825.38;5057015;28;859;-41
2021/07/10 10:03:52;;;;;;;;;;;;;;;21.18;59.55;100824.88;5055964;28;963;-41
2021/07/10 10:06:31;;;;;;;;;;;;;;;21.63;61.94;100827.13;5056892;28;1906;-41
2021/07/10 10:08:57;;;;;;;;;;;;;;;21.99;62.35;100826.41;5056441;28;858;-40
2021/07/10 10:11:23;;;;;;;;;;;;;;;22.11;62.18;100814.78;5056888;28;803;-42
2021/07/10 10:13:48;;;;;;;;;;;;;;;22.02;61.73;100819.41;5056350;28;847;-42
2021/07/10 10:16:15;;;;;;;;;;;;;;;21.66;62.97;100817.38;5056775;28;787;-47
2021/07/10 10:18:42;;;;;;;;;;;;;;;21.42;61.20;100821.13;5055034;28;963;-41
2021/07/10 10:21:07;;;;;;;;;;;;;;;20.60;57.37;100808.69;5056334;28;775;-41
2021/07/10 10:23:33;;;;;;;;;;;;;;;20.83;58.39;100818.84;5056386;28;796;-41
2021/07/10 10:25:58;;;;;;;;;;;;;;;20.97;57.09;100812.50;5038319;28;851;-42
2021/07/10 10:28:23;;;;;;;;;;;;;;;20.99;55.58;100815.81;5038235;28;1914;-41
2021/07/10 10:30:53;;;;;;;;;;;;;;;20.96;55.21;100813.66;5038313;28;918;-41
2021/07/10 10:33:19;;;;;;;;;;;;;;;20.93;55.43;100811.47;5055165;28;987;-42
2021/07/10 10:35:45;;;;;;;;;;;;;;;21.18;54.99;100799.97;5056500;28;955;-48
2021/07/10 10:38:10;;;;;;;;;;;;;;;21.13;55.25;100813.91;5056767;28;815;-43
2021/07/10 10:40:36;;;;;;;;;;;;;;;21.12;55.49;100805.91;5038211;28;804;-42
2021/07/10 10:43:01;;;;;;;;;;;;;;;21.46;54.52;100802.78;5055961;28;807;-42
2021/07/10 10:45:31;;;;;;;;;;;;;;;21.25;55.29;100809.81;5056853;28;709;-42
2021/07/10 10:47:56;;;;;;;;;;;;;;;21.18;55.42;100799.97;5038066;28;1921;-42
2021/07/10 10:50:24;;;;;;;;;;;;;;;21.32;55.01;100790.88;5055971;28;1087;-42
2021/07/10 10:52:51;;;;;;;;;;;;;;;21.36;54.81;100800.19;5037937;28;1052;-42
2021/07/10 10:55:17;;;;;;;;;;;;;;;21.32;55.20;100788.09;5055852;28;782;-42
2021/07/10 10:57:44;;;;;;;;;;;;;;;21.58;54.25;100794.00;5056179;28;748;-42
2021/07/10 11:00:13;;;;;;;;;;;;;;;21.47;54.56;100798.06;5055945;28;760;-42
2021/07/10 11:02:40;;;;;;;;;;;;;;;21.41;54.68;100789.06;5055578;28;1051;-42
2021/07/10 11:05:06;;;;;;;;;;;;;;;21.45;54.57;100790.09;5044396;28;943;-42
2021/07/10 11:07:36;;;;;;;;;;;;;;;21.46;54.59;100797.25;5036000;28;1975;-42
2021/07/10 11:10:11;;;;;;;;;;;;;;;21.36;54.92;100786.38;5035649;28;799;-42
2021/07/10 11:12:48;;;;;;;;;;;;;;;21.40;54.82;100790.16;5035616;28;787;-42
2021/07/10 11:15:30;;;;;;;;;;;;;;;21.18;55.50;100786.16;5036130;28;844;-42
2021/07/10 11:17:59;;;;;;;;;;;;;;;21.35;55.04;100785.56;5035944;28;788;-42
2021/07/10 11:20:43;;;;;;;;;;;;;;;21.42;54.89;100778.78;5053109;28;960;-42
2021/07/10 11:23:27;;;;;;;;;;;;;;;21.46;54.65;100782.59;5055476;28;744;-42
2021/07/10 11:25:52;;;;;;;;;;;;;;;21.26;55.41;100779.09;5055564;28;740;-43
2021/07/10 11:28:18;;;;;;;;;;;;;;;20.97;56.26;100784.88;5055837;28;1975;-42
2021/07/10 11:30:45;;;;;;;;;;;;;;;20.77;55.61;100775.81;5055370;28;839;-42
2021/07/10 11:33:10;;;;;;;;;;;;;;;20.32;58.02;100776.19;5055570;28;772;-42
2021/07/10 11:35:36;;;;;;;;;;;;;;;20.93;57.20;100768.09;5037812;28;1023;-43
2021/07/10 11:38:01;;;;;;;;;;;;;;;21.37;58.59;100765.91;5055094;28;775;-42
2021/07/10 11:40:37;;;;;;;;;;;;;;;21.79;59.31;100768.69;5038286;28;756;-42
2021/07/10 11:43:09;;;;;;;;;;;;;;;21.79;61.06;100761.19;5055505;28;850;-42
2021/07/10 11:45:36;;;;;;;;;;;;;;;21.76;61.66;100767.34;5055200;28;816;-42
2021/07/10 11:48:18;;;;;;;;;;;;;;;21.53;58.07;100763.66;5055720;28;1902;-42
2021/07/10 11:50:43;;;;;;;;;;;;;;;21.40;58.52;100768.03;5019281;28;968;-42
2021/07/10 11:53:10;;;;;;;;;;;;;;;21.49;61.00;100759.84;5038697;28;1069;-42
2021/07/10 11:55:36;;;;;;;;;;;;;;;21.60;60.25;100766.03;5040022;28;697;-43
2021/07/10 11:58:03;;;;;;;;;;;;;;;21.53;59.58;100758.13;5039328;28;739;-42
2021/07/10 12:00:28;;;;;;;;;;;;;;;21.72;57.27;100771.88;5039095;28;764;-42
2021/07/10 12:02:54;;;;;;;;;;;;;;;21.62;56.32;100761.00;5039282;28;768;-43
2021/07/10 12:05:20;;;;;;;;;;;;;;;21.51;55.88;100760.38;5041836;28;936;-43
2021/07/10 12:07:52;;;;;;;;;;;;;;;21.44;55.13;100755.22;5038716;28;1983;-42
2021/07/10 12:10:28;;;;;;;;;;;;;;;21.69;53.98;100756.69;5039142;28;744;-44
2021/07/10 12:12:54;;;;;;;;;;;;;;;21.44;54.49;100755.22;5039062;28;505;-48
2021/07/10 12:15:21;;;;;;;;;;;;;;;21.48;54.00;100755.44;5038407;28;494;-43
2021/07/10 12:17:47;;;;;;;;;;;;;;;21.26;54.33;100753.38;5039056;28;815;-43
2021/07/10 12:20:14;;;;;;;;;;;;;;;21.26;54.18;100742.34;5053578;28;1011;-49
2021/07/10 12:23:06;;;;;;;;;;;;;;;21.32;53.98;100741.09;5040206;28;919;-43
2021/07/10 12:25:41;;;;;;;;;;;;;;;21.40;53.69;100737.63;5054194;28;1012;-43
2021/07/10 12:28:07;;;;;;;;;;;;;;;21.35;53.75;100744.06;5058175;28;1971;-44
2021/07/10 12:30:36;;;;;;;;;;;;;;;21.44;53.19;100738.63;5058386;28;823;-43
2021/07/10 12:33:01;;;;;;;;;;;;;;;21.07;54.25;100745.16;5058874;28;771;-44
2021/07/10 12:35:27;;;;;;;;;;;;;;;20.93;54.82;100739.59;5057747;28;967;-45
2021/07/10 12:37:52;;;;;;;;;;;;;;;21.18;54.05;100733.63;5058359;28;850;-41
2021/07/10 12:40:18;;;;;;;;;;;;;;;21.00;54.33;100734.53;5058484;28;779;-44
2021/07/10 12:42:43;;;;;;;;;;;;;;;20.57;55.64;100726.41;5058013;28;847;-45
2021/07/10 12:45:09;;;;;;;;;;;;;;;20.71;55.10;100738.34;5039991;28;830;-44
2021/07/10 12:47:34;;;;;;;;;;;;;;;20.03;55.89;100734.94;5058488;28;1913;-42
2021/07/10 12:49:59;;;;;;;;;;;;;;;20.48;55.79;100740.06;5058187;28;955;-42